sensor_id;sensor_type;location;lat;lon;timestamp;temperature;humidity
23231;DHT22;11784;49.818;8.632;2023-08-06T00:00:25;19.40;99.20
23231;DHT22;11784;49.818;8.632;2023-08-06T00:02:50;19.40;99.30
23231;DHT22;11784;49.818;8.632;2023-08-06T00:05:16;19.40;99.20
23231;DHT22;11784;49.818;8.632;2023-08-06T00:07:44;19.30;99.10
23231;DHT22;11784;49.818;8.632;2023-08-06T00:10:10;19.30;99.20
23231;DHT22;11784;49.818;8.632;2023-08-06T00:12:36;19.30;98.90
23231;DHT22;11784;49.818;8.632;2023-08-06T00:15:02;19.30;99.00
23231;DHT22;11784;49.818;8.632;2023-08-06T00:17:28;19.30;98.70
23231;DHT22;11784;49.818;8.632;2023-08-06T00:19:53;19.30;98.70
23231;DHT22;11784;49.818;8.632;2023-08-06T00:22:19;19.30;99.00
23231;DHT22;11784;49.818;8.632;2023-08-06T00:24:44;19.30;98.70
23231;DHT22;11784;49.818;8.632;2023-08-06T00:27:10;19.30;98.80
23231;DHT22;11784;49.818;8.632;2023-08-06T00:29:35;19.30;98.90
23231;DHT22;11784;49.818;8.632;2023-08-06T00:32:01;19.30;98.90
23231;DHT22;11784;49.818;8.632;2023-08-06T00:34:26;19.30;98.70
23231;DHT22;11784;49.818;8.632;2023-08-06T00:36:52;19.40;98.60
23231;DHT22;11784;49.818;8.632;2023-08-06T00:39:19;19.40;98.20
23231;DHT22;11784;49.818;8.632;2023-08-06T00:41:44;19.40;98.20
23231;DHT22;11784;49.818;8.632;2023-08-06T00:44:10;19.40;98.20
23231;DHT22;11784;49.818;8.632;2023-08-06T00:46:35;19.40;98.30
23231;DHT22;11784;49.818;8.632;2023-08-06T00:49:01;19.40;98.20
23231;DHT22;11784;49.818;8.632;2023-08-06T00:51:27;19.40;98.30
23231;DHT22;11784;49.818;8.632;2023-08-06T00:53:53;19.40;98.10
23231;DHT22;11784;49.818;8.632;2023-08-06T00:56:19;19.40;98.20
23231;DHT22;11784;49.818;8.632;2023-08-06T00:58:45;19.40;98.40
23231;DHT22;11784;49.818;8.632;2023-08-06T01:01:11;19.40;98.40
23231;DHT22;11784;49.818;8.632;2023-08-06T01:03:37;19.40;98.20
23231;DHT22;11784;49.818;8.632;2023-08-06T01:06:02;19.50;97.90
23231;DHT22;11784;49.818;8.632;2023-08-06T01:08:54;19.50;97.70
23231;DHT22;11784;49.818;8.632;2023-08-06T01:11:42;19.50;97.70
23231;DHT22;11784;49.818;8.632;2023-08-06T01:14:23;19.50;97.70
23231;DHT22;11784;49.818;8.632;2023-08-06T01:16:51;19.50;97.30
23231;DHT22;11784;49.818;8.632;2023-08-06T01:19:21;19.50;97.20
23231;DHT22;11784;49.818;8.632;2023-08-06T01:21:46;19.50;97.00
23231;DHT22;11784;49.818;8.632;2023-08-06T01:24:12;19.50;96.80
23231;DHT22;11784;49.818;8.632;2023-08-06T01:26:48;19.50;96.50
23231;DHT22;11784;49.818;8.632;2023-08-06T01:29:28;19.50;96.50
23231;DHT22;11784;49.818;8.632;2023-08-06T01:31:56;19.50;96.20
23231;DHT22;11784;49.818;8.632;2023-08-06T01:34:30;19.50;96.00
23231;DHT22;11784;49.818;8.632;2023-08-06T01:36:57;19.50;96.10
23231;DHT22;11784;49.818;8.632;2023-08-06T01:39:23;19.50;95.80
23231;DHT22;11784;49.818;8.632;2023-08-06T01:41:48;19.50;95.80
23231;DHT22;11784;49.818;8.632;2023-08-06T01:44:15;19.50;95.40
23231;DHT22;11784;49.818;8.632;2023-08-06T01:46:41;19.50;95.30
23231;DHT22;11784;49.818;8.632;2023-08-06T01:49:06;19.50;95.10
23231;DHT22;11784;49.818;8.632;2023-08-06T01:51:32;19.50;95.40
23231;DHT22;11784;49.818;8.632;2023-08-06T01:53:57;19.50;95.20
23231;DHT22;11784;49.818;8.632;2023-08-06T01:56:23;19.50;95.10
23231;DHT22;11784;49.818;8.632;2023-08-06T01:58:48;19.50;95.20
23231;DHT22;11784;49.818;8.632;2023-08-06T02:01:14;19.50;95.10
23231;DHT22;11784;49.818;8.632;2023-08-06T02:03:39;19.60;95.40
23231;DHT22;11784;49.818;8.632;2023-08-06T02:06:05;19.60;95.00
23231;DHT22;11784;49.818;8.632;2023-08-06T02:08:30;19.60;94.90
23231;DHT22;11784;49.818;8.632;2023-08-06T02:10:56;19.60;94.80
23231;DHT22;11784;49.818;8.632;2023-08-06T02:13:23;19.60;94.70
23231;DHT22;11784;49.818;8.632;2023-08-06T02:15:48;19.70;95.00
23231;DHT22;11784;49.818;8.632;2023-08-06T02:18:15;19.70;94.80
23231;DHT22;11784;49.818;8.632;2023-08-06T02:20:41;19.70;94.80
23231;DHT22;11784;49.818;8.632;2023-08-06T02:23:07;19.70;95.10
23231;DHT22;11784;49.818;8.632;2023-08-06T02:25:33;19.60;94.90
23231;DHT22;11784;49.818;8.632;2023-08-06T02:27:58;19.60;94.50
23231;DHT22;11784;49.818;8.632;2023-08-06T02:30:24;19.60;94.40
23231;DHT22;11784;49.818;8.632;2023-08-06T02:32:49;19.60;94.50
23231;DHT22;11784;49.818;8.632;2023-08-06T02:35:15;19.60;94.50
23231;DHT22;11784;49.818;8.632;2023-08-06T02:37:40;19.60;94.30
23231;DHT22;11784;49.818;8.632;2023-08-06T02:40:06;19.50;94.20
23231;DHT22;11784;49.818;8.632;2023-08-06T02:42:33;19.50;94.10
23231;DHT22;11784;49.818;8.632;2023-08-06T02:44:58;19.50;94.20
23231;DHT22;11784;49.818;8.632;2023-08-06T02:47:24;19.50;94.10
23231;DHT22;11784;49.818;8.632;2023-08-06T02:49:49;19.50;94.20
23231;DHT22;11784;49.818;8.632;2023-08-06T02:52:15;19.50;94.20
23231;DHT22;11784;49.818;8.632;2023-08-06T02:54:40;19.40;94.20
23231;DHT22;11784;49.818;8.632;2023-08-06T02:57:06;19.40;94.20
23231;DHT22;11784;49.818;8.632;2023-08-06T02:59:32;19.40;94.40
23231;DHT22;11784;49.818;8.632;2023-08-06T03:01:57;19.40;94.00
23231;DHT22;11784;49.818;8.632;2023-08-06T03:04:23;19.30;94.00
23231;DHT22;11784;49.818;8.632;2023-08-06T03:06:50;19.30;94.30
23231;DHT22;11784;49.818;8.632;2023-08-06T03:09:16;19.30;94.30
23231;DHT22;11784;49.818;8.632;2023-08-06T03:11:42;19.30;94.40
23231;DHT22;11784;49.818;8.632;2023-08-06T03:14:07;19.30;94.50
23231;DHT22;11784;49.818;8.632;2023-08-06T03:16:33;19.30;94.50
23231;DHT22;11784;49.818;8.632;2023-08-06T03:18:58;19.30;94.50
23231;DHT22;11784;49.818;8.632;2023-08-06T03:21:24;19.30;94.50
23231;DHT22;11784;49.818;8.632;2023-08-06T03:23:49;19.20;94.60
23231;DHT22;11784;49.818;8.632;2023-08-06T03:26:15;19.20;94.70
23231;DHT22;11784;49.818;8.632;2023-08-06T03:28:40;19.20;95.10
23231;DHT22;11784;49.818;8.632;2023-08-06T03:31:06;19.20;95.00
23231;DHT22;11784;49.818;8.632;2023-08-06T03:33:31;19.20;95.10
23231;DHT22;11784;49.818;8.632;2023-08-06T03:36:00;19.20;95.10
23231;DHT22;11784;49.818;8.632;2023-08-06T03:38:26;19.20;95.20
23231;DHT22;11784;49.818;8.632;2023-08-06T03:40:52;19.20;95.30
23231;DHT22;11784;49.818;8.632;2023-08-06T03:43:17;19.20;95.20
23231;DHT22;11784;49.818;8.632;2023-08-06T03:45:43;19.20;95.30
23231;DHT22;11784;49.818;8.632;2023-08-06T03:48:08;19.20;95.30
23231;DHT22;11784;49.818;8.632;2023-08-06T03:50:34;19.20;95.20
23231;DHT22;11784;49.818;8.632;2023-08-06T03:53:00;19.20;95.10
23231;DHT22;11784;49.818;8.632;2023-08-06T03:55:26;19.20;95.20
23231;DHT22;11784;49.818;8.632;2023-08-06T03:57:51;19.20;95.10
23231;DHT22;11784;49.818;8.632;2023-08-06T04:00:17;19.20;95.10
23231;DHT22;11784;49.818;8.632;2023-08-06T04:02:42;19.10;95.40
23231;DHT22;11784;49.818;8.632;2023-08-06T04:05:08;19.10;95.50
23231;DHT22;11784;49.818;8.632;2023-08-06T04:07:34;19.10;95.70
23231;DHT22;11784;49.818;8.632;2023-08-06T04:10:04;19.10;96.10
23231;DHT22;11784;49.818;8.632;2023-08-06T04:12:30;19.20;96.60
23231;DHT22;11784;49.818;8.632;2023-08-06T04:14:58;19.10;96.90
23231;DHT22;11784;49.818;8.632;2023-08-06T04:17:24;19.10;97.10
23231;DHT22;11784;49.818;8.632;2023-08-06T04:19:51;19.10;97.40
23231;DHT22;11784;49.818;8.632;2023-08-06T04:22:18;19.10;97.60
23231;DHT22;11784;49.818;8.632;2023-08-06T04:24:43;19.10;97.70
23231;DHT22;11784;49.818;8.632;2023-08-06T04:27:10;19.00;98.00
23231;DHT22;11784;49.818;8.632;2023-08-06T04:29:36;19.00;98.30
23231;DHT22;11784;49.818;8.632;2023-08-06T04:32:02;19.00;98.20
23231;DHT22;11784;49.818;8.632;2023-08-06T04:34:27;19.00;98.30
23231;DHT22;11784;49.818;8.632;2023-08-06T04:36:53;19.00;98.30
23231;DHT22;11784;49.818;8.632;2023-08-06T04:39:18;18.90;98.70
23231;DHT22;11784;49.818;8.632;2023-08-06T04:41:44;18.80;98.90
23231;DHT22;11784;49.818;8.632;2023-08-06T04:44:09;18.80;99.00
23231;DHT22;11784;49.818;8.632;2023-08-06T04:46:35;18.70;99.00
23231;DHT22;11784;49.818;8.632;2023-08-06T04:49:00;18.70;99.30
23231;DHT22;11784;49.818;8.632;2023-08-06T04:51:26;18.70;99.40
23231;DHT22;11784;49.818;8.632;2023-08-06T04:53:51;18.70;99.30
23231;DHT22;11784;49.818;8.632;2023-08-06T04:56:17;18.70;99.40
23231;DHT22;11784;49.818;8.632;2023-08-06T04:58:42;18.70;99.60
23231;DHT22;11784;49.818;8.632;2023-08-06T05:01:08;18.70;99.70
23231;DHT22;11784;49.818;8.632;2023-08-06T05:03:33;18.60;99.80
23231;DHT22;11784;49.818;8.632;2023-08-06T05:05:59;18.60;99.80
23231;DHT22;11784;49.818;8.632;2023-08-06T05:08:24;18.60;99.90
23231;DHT22;11784;49.818;8.632;2023-08-06T05:10:50;18.60;99.90
23231;DHT22;11784;49.818;8.632;2023-08-06T05:13:15;18.60;99.90
23231;DHT22;11784;49.818;8.632;2023-08-06T05:15:42;18.70;99.90
23231;DHT22;11784;49.818;8.632;2023-08-06T05:18:08;18.70;99.90
23231;DHT22;11784;49.818;8.632;2023-08-06T05:20:38;18.70;99.90
23231;DHT22;11784;49.818;8.632;2023-08-06T05:23:04;18.60;99.90
23231;DHT22;11784;49.818;8.632;2023-08-06T05:25:30;18.60;99.90
23231;DHT22;11784;49.818;8.632;2023-08-06T05:27:55;18.60;99.90
23231;DHT22;11784;49.818;8.632;2023-08-06T05:30:21;18.60;99.90
23231;DHT22;11784;49.818;8.632;2023-08-06T05:32:46;18.60;99.90
23231;DHT22;11784;49.818;8.632;2023-08-06T05:35:12;18.60;99.90
23231;DHT22;11784;49.818;8.632;2023-08-06T05:37:37;18.70;99.90
23231;DHT22;11784;49.818;8.632;2023-08-06T05:40:03;18.60;99.90
23231;DHT22;11784;49.818;8.632;2023-08-06T05:42:29;18.60;99.90
23231;DHT22;11784;49.818;8.632;2023-08-06T05:44:55;18.60;99.90
23231;DHT22;11784;49.818;8.632;2023-08-06T05:47:20;18.60;99.90
23231;DHT22;11784;49.818;8.632;2023-08-06T05:49:46;18.60;99.90
23231;DHT22;11784;49.818;8.632;2023-08-06T05:52:11;18.60;99.90
23231;DHT22;11784;49.818;8.632;2023-08-06T05:54:37;18.60;99.90
23231;DHT22;11784;49.818;8.632;2023-08-06T05:57:03;18.60;99.90
23231;DHT22;11784;49.818;8.632;2023-08-06T05:59:29;18.60;99.90
23231;DHT22;11784;49.818;8.632;2023-08-06T06:01:54;18.70;99.90
23231;DHT22;11784;49.818;8.632;2023-08-06T06:04:20;18.60;99.90
23231;DHT22;11784;49.818;8.632;2023-08-06T06:06:45;18.60;99.90
23231;DHT22;11784;49.818;8.632;2023-08-06T06:09:11;18.60;99.90
23231;DHT22;11784;49.818;8.632;2023-08-06T06:11:36;18.60;99.90
23231;DHT22;11784;49.818;8.632;2023-08-06T06:14:02;18.60;99.90
23231;DHT22;11784;49.818;8.632;2023-08-06T06:16:28;18.60;99.90
23231;DHT22;11784;49.818;8.632;2023-08-06T06:18:53;18.60;99.90
23231;DHT22;11784;49.818;8.632;2023-08-06T06:21:20;18.50;99.90
23231;DHT22;11784;49.818;8.632;2023-08-06T06:23:45;18.50;99.90
23231;DHT22;11784;49.818;8.632;2023-08-06T06:26:11;18.50;99.90
23231;DHT22;11784;49.818;8.632;2023-08-06T06:28:36;18.50;99.90
23231;DHT22;11784;49.818;8.632;2023-08-06T06:31:02;18.60;99.90
23231;DHT22;11784;49.818;8.632;2023-08-06T06:33:28;18.60;99.90
23231;DHT22;11784;49.818;8.632;2023-08-06T06:35:54;18.50;99.90
23231;DHT22;11784;49.818;8.632;2023-08-06T06:38:19;18.60;99.90
23231;DHT22;11784;49.818;8.632;2023-08-06T06:40:53;18.60;99.90
23231;DHT22;11784;49.818;8.632;2023-08-06T06:43:19;18.60;99.90
23231;DHT22;11784;49.818;8.632;2023-08-06T06:45:44;18.60;99.90
23231;DHT22;11784;49.818;8.632;2023-08-06T06:48:10;18.60;99.90
23231;DHT22;11784;49.818;8.632;2023-08-06T06:50:36;18.60;99.90
23231;DHT22;11784;49.818;8.632;2023-08-06T06:53:01;18.60;99.90
23231;DHT22;11784;49.818;8.632;2023-08-06T06:55:27;18.60;99.90
23231;DHT22;11784;49.818;8.632;2023-08-06T06:57:53;18.60;99.90
23231;DHT22;11784;49.818;8.632;2023-08-06T07:00:18;18.50;99.90
23231;DHT22;11784;49.818;8.632;2023-08-06T07:02:44;18.50;99.90
23231;DHT22;11784;49.818;8.632;2023-08-06T07:05:09;18.50;99.90
23231;DHT22;11784;49.818;8.632;2023-08-06T07:07:35;18.50;99.90
23231;DHT22;11784;49.818;8.632;2023-08-06T07:10:02;18.50;99.90
23231;DHT22;11784;49.818;8.632;2023-08-06T07:12:27;18.40;99.90
23231;DHT22;11784;49.818;8.632;2023-08-06T07:14:53;18.40;99.90
23231;DHT22;11784;49.818;8.632;2023-08-06T07:17:18;18.50;99.90
23231;DHT22;11784;49.818;8.632;2023-08-06T07:19:44;18.50;99.90
23231;DHT22;11784;49.818;8.632;2023-08-06T07:22:09;18.50;99.90
23231;DHT22;11784;49.818;8.632;2023-08-06T07:24:35;18.50;99.90
23231;DHT22;11784;49.818;8.632;2023-08-06T07:27:00;18.50;99.90
23231;DHT22;11784;49.818;8.632;2023-08-06T07:29:26;18.50;99.90
23231;DHT22;11784;49.818;8.632;2023-08-06T07:31:52;18.50;99.90
23231;DHT22;11784;49.818;8.632;2023-08-06T07:34:17;18.50;99.90
23231;DHT22;11784;49.818;8.632;2023-08-06T07:36:44;18.40;99.90
23231;DHT22;11784;49.818;8.632;2023-08-06T07:39:10;18.40;99.90
23231;DHT22;11784;49.818;8.632;2023-08-06T07:41:36;18.50;99.90
23231;DHT22;11784;49.818;8.632;2023-08-06T07:44:01;18.40;99.90
23231;DHT22;11784;49.818;8.632;2023-08-06T07:46:27;18.40;99.90
23231;DHT22;11784;49.818;8.632;2023-08-06T07:48:53;18.40;99.90
23231;DHT22;11784;49.818;8.632;2023-08-06T07:51:19;18.40;99.90
23231;DHT22;11784;49.818;8.632;2023-08-06T07:53:46;18.30;99.90
23231;DHT22;11784;49.818;8.632;2023-08-06T07:56:12;18.40;99.90
23231;DHT22;11784;49.818;8.632;2023-08-06T07:58:38;18.40;99.90
23231;DHT22;11784;49.818;8.632;2023-08-06T08:01:03;18.40;99.90
23231;DHT22;11784;49.818;8.632;2023-08-06T08:03:29;18.40;99.90
23231;DHT22;11784;49.818;8.632;2023-08-06T08:05:55;18.50;99.90
23231;DHT22;11784;49.818;8.632;2023-08-06T08:08:24;18.50;99.90
23231;DHT22;11784;49.818;8.632;2023-08-06T08:10:50;18.50;99.90
23231;DHT22;11784;49.818;8.632;2023-08-06T08:13:15;18.50;99.90
23231;DHT22;11784;49.818;8.632;2023-08-06T08:15:41;18.60;99.90
23231;DHT22;11784;49.818;8.632;2023-08-06T08:18:07;18.60;99.90
23231;DHT22;11784;49.818;8.632;2023-08-06T08:20:33;18.60;99.90
23231;DHT22;11784;49.818;8.632;2023-08-06T08:23:00;18.60;99.90
23231;DHT22;11784;49.818;8.632;2023-08-06T08:25:26;18.60;99.90
23231;DHT22;11784;49.818;8.632;2023-08-06T08:27:53;18.60;99.90
23231;DHT22;11784;49.818;8.632;2023-08-06T08:30:19;18.70;99.90
23231;DHT22;11784;49.818;8.632;2023-08-06T08:32:44;18.70;99.90
23231;DHT22;11784;49.818;8.632;2023-08-06T08:35:10;18.70;99.90
23231;DHT22;11784;49.818;8.632;2023-08-06T08:37:38;18.70;99.90
23231;DHT22;11784;49.818;8.632;2023-08-06T08:40:05;18.80;99.90
23231;DHT22;11784;49.818;8.632;2023-08-06T08:42:31;18.90;99.90
23231;DHT22;11784;49.818;8.632;2023-08-06T08:44:57;18.90;99.90
23231;DHT22;11784;49.818;8.632;2023-08-06T08:47:24;19.00;99.90
23231;DHT22;11784;49.818;8.632;2023-08-06T08:49:53;19.00;99.90
23231;DHT22;11784;49.818;8.632;2023-08-06T08:52:20;19.00;99.90
23231;DHT22;11784;49.818;8.632;2023-08-06T08:54:48;19.10;99.90
23231;DHT22;11784;49.818;8.632;2023-08-06T08:57:18;19.10;99.90
23231;DHT22;11784;49.818;8.632;2023-08-06T08:59:44;19.20;99.90
23231;DHT22;11784;49.818;8.632;2023-08-06T09:02:13;19.30;99.90
23231;DHT22;11784;49.818;8.632;2023-08-06T09:04:41;19.40;99.90
23231;DHT22;11784;49.818;8.632;2023-08-06T09:07:10;19.60;99.90
23231;DHT22;11784;49.818;8.632;2023-08-06T09:09:39;19.70;99.90
23231;DHT22;11784;49.818;8.632;2023-08-06T09:12:15;19.70;99.90
23231;DHT22;11784;49.818;8.632;2023-08-06T09:14:42;19.80;99.90
23231;DHT22;11784;49.818;8.632;2023-08-06T09:17:08;19.80;99.90
23231;DHT22;11784;49.818;8.632;2023-08-06T09:19:36;19.80;99.90
23231;DHT22;11784;49.818;8.632;2023-08-06T09:22:02;19.90;99.90
23231;DHT22;11784;49.818;8.632;2023-08-06T09:24:28;19.80;99.90
23231;DHT22;11784;49.818;8.632;2023-08-06T09:26:54;19.90;99.90
23231;DHT22;11784;49.818;8.632;2023-08-06T09:29:20;19.80;99.90
23231;DHT22;11784;49.818;8.632;2023-08-06T09:31:50;19.80;99.90
23231;DHT22;11784;49.818;8.632;2023-08-06T09:34:20;19.90;99.90
23231;DHT22;11784;49.818;8.632;2023-08-06T09:36:52;19.90;99.90
23231;DHT22;11784;49.818;8.632;2023-08-06T09:39:20;20.00;99.90
23231;DHT22;11784;49.818;8.632;2023-08-06T09:41:47;19.90;99.90
23231;DHT22;11784;49.818;8.632;2023-08-06T09:44:18;20.00;99.90
23231;DHT22;11784;49.818;8.632;2023-08-06T09:46:51;20.00;99.90
23231;DHT22;11784;49.818;8.632;2023-08-06T09:49:24;20.00;99.90
23231;DHT22;11784;49.818;8.632;2023-08-06T09:51:51;20.00;99.90
23231;DHT22;11784;49.818;8.632;2023-08-06T09:54:17;20.00;99.90
23231;DHT22;11784;49.818;8.632;2023-08-06T09:56:44;20.10;99.90
23231;DHT22;11784;49.818;8.632;2023-08-06T09:59:10;20.10;99.90
23231;DHT22;11784;49.818;8.632;2023-08-06T10:01:36;20.20;99.70
23231;DHT22;11784;49.818;8.632;2023-08-06T10:04:04;20.30;99.20
23231;DHT22;11784;49.818;8.632;2023-08-06T10:06:34;20.30;98.90
23231;DHT22;11784;49.818;8.632;2023-08-06T10:09:04;20.40;99.90
23231;DHT22;11784;49.818;8.632;2023-08-06T10:11:30;20.50;99.20
23231;DHT22;11784;49.818;8.632;2023-08-06T10:14:13;20.50;98.40
23231;DHT22;11784;49.818;8.632;2023-08-06T10:16:40;20.50;98.10
23231;DHT22;11784;49.818;8.632;2023-08-06T10:19:12;20.40;97.80
23231;DHT22;11784;49.818;8.632;2023-08-06T10:21:39;20.40;96.30
23231;DHT22;11784;49.818;8.632;2023-08-06T10:24:07;20.30;96.70
23231;DHT22;11784;49.818;8.632;2023-08-06T10:26:36;20.20;96.80
23231;DHT22;11784;49.818;8.632;2023-08-06T10:29:01;20.10;96.60
23231;DHT22;11784;49.818;8.632;2023-08-06T10:31:54;20.00;97.20
23231;DHT22;11784;49.818;8.632;2023-08-06T10:34:21;20.00;98.30
23231;DHT22;11784;49.818;8.632;2023-08-06T10:36:47;20.00;98.30
23231;DHT22;11784;49.818;8.632;2023-08-06T10:39:16;20.00;97.80
23231;DHT22;11784;49.818;8.632;2023-08-06T10:41:44;20.00;96.40
23231;DHT22;11784;49.818;8.632;2023-08-06T10:44:11;20.00;95.70
23231;DHT22;11784;49.818;8.632;2023-08-06T10:46:37;20.00;95.40
23231;DHT22;11784;49.818;8.632;2023-08-06T10:49:04;19.90;95.20
23231;DHT22;11784;49.818;8.632;2023-08-06T10:51:30;19.90;95.10
23231;DHT22;11784;49.818;8.632;2023-08-06T10:53:56;19.90;95.00
23231;DHT22;11784;49.818;8.632;2023-08-06T10:56:24;19.90;95.30
23231;DHT22;11784;49.818;8.632;2023-08-06T10:58:53;19.80;95.40
23231;DHT22;11784;49.818;8.632;2023-08-06T11:01:19;19.80;95.60
23231;DHT22;11784;49.818;8.632;2023-08-06T11:03:46;19.80;95.70
23231;DHT22;11784;49.818;8.632;2023-08-06T11:06:22;19.80;95.70
23231;DHT22;11784;49.818;8.632;2023-08-06T11:08:55;19.80;95.10
23231;DHT22;11784;49.818;8.632;2023-08-06T11:11:22;19.80;95.20
23231;DHT22;11784;49.818;8.632;2023-08-06T11:13:49;19.80;95.50
23231;DHT22;11784;49.818;8.632;2023-08-06T11:16:18;19.80;95.20
23231;DHT22;11784;49.818;8.632;2023-08-06T11:18:44;19.80;94.40
23231;DHT22;11784;49.818;8.632;2023-08-06T11:21:10;19.80;93.70
23231;DHT22;11784;49.818;8.632;2023-08-06T11:23:37;19.80;94.00
23231;DHT22;11784;49.818;8.632;2023-08-06T11:26:03;19.70;92.80
23231;DHT22;11784;49.818;8.632;2023-08-06T11:28:28;19.60;93.30
23231;DHT22;11784;49.818;8.632;2023-08-06T11:30:54;19.60;92.90
23231;DHT22;11784;49.818;8.632;2023-08-06T11:33:27;19.60;92.80
23231;DHT22;11784;49.818;8.632;2023-08-06T11:35:58;19.50;93.80
23231;DHT22;11784;49.818;8.632;2023-08-06T11:38:28;19.50;93.90
23231;DHT22;11784;49.818;8.632;2023-08-06T11:40:57;19.40;95.20
23231;DHT22;11784;49.818;8.632;2023-08-06T11:43:22;19.30;95.90
23231;DHT22;11784;49.818;8.632;2023-08-06T11:45:49;19.20;97.00
23231;DHT22;11784;49.818;8.632;2023-08-06T11:48:16;19.10;96.40
23231;DHT22;11784;49.818;8.632;2023-08-06T11:50:43;19.00;96.50
23231;DHT22;11784;49.818;8.632;2023-08-06T11:53:13;18.90;96.40
23231;DHT22;11784;49.818;8.632;2023-08-06T11:55:39;18.80;96.70
23231;DHT22;11784;49.818;8.632;2023-08-06T11:58:05;18.70;96.70
23231;DHT22;11784;49.818;8.632;2023-08-06T12:00:31;18.70;96.90
23231;DHT22;11784;49.818;8.632;2023-08-06T12:02:57;18.60;98.50
23231;DHT22;11784;49.818;8.632;2023-08-06T12:05:24;18.50;98.90
23231;DHT22;11784;49.818;8.632;2023-08-06T12:07:56;18.40;99.30
23231;DHT22;11784;49.818;8.632;2023-08-06T12:10:24;18.30;99.60
23231;DHT22;11784;49.818;8.632;2023-08-06T12:12:50;18.20;99.90
23231;DHT22;11784;49.818;8.632;2023-08-06T12:15:17;18.20;99.90
23231;DHT22;11784;49.818;8.632;2023-08-06T12:17:43;18.10;99.90
23231;DHT22;11784;49.818;8.632;2023-08-06T12:20:09;18.00;99.80
23231;DHT22;11784;49.818;8.632;2023-08-06T12:22:36;18.00;99.90
23231;DHT22;11784;49.818;8.632;2023-08-06T12:25:05;18.00;99.90
23231;DHT22;11784;49.818;8.632;2023-08-06T12:27:34;18.00;99.50
23231;DHT22;11784;49.818;8.632;2023-08-06T12:30:01;18.00;99.90
23231;DHT22;11784;49.818;8.632;2023-08-06T12:32:26;18.10;99.90
23231;DHT22;11784;49.818;8.632;2023-08-06T12:34:52;18.10;99.90
23231;DHT22;11784;49.818;8.632;2023-08-06T12:37:18;18.10;99.40
23231;DHT22;11784;49.818;8.632;2023-08-06T12:39:43;18.10;98.00
23231;DHT22;11784;49.818;8.632;2023-08-06T12:42:09;18.10;97.70
23231;DHT22;11784;49.818;8.632;2023-08-06T12:44:35;18.10;97.10
23231;DHT22;11784;49.818;8.632;2023-08-06T12:47:01;18.00;96.80
23231;DHT22;11784;49.818;8.632;2023-08-06T12:49:27;18.00;96.40
23231;DHT22;11784;49.818;8.632;2023-08-06T12:51:53;18.00;96.10
23231;DHT22;11784;49.818;8.632;2023-08-06T12:54:19;18.10;96.70
23231;DHT22;11784;49.818;8.632;2023-08-06T12:56:46;18.10;97.60
23231;DHT22;11784;49.818;8.632;2023-08-06T12:59:13;18.10;96.00
23231;DHT22;11784;49.818;8.632;2023-08-06T13:01:40;18.10;95.80
23231;DHT22;11784;49.818;8.632;2023-08-06T13:04:05;18.20;95.70
23231;DHT22;11784;49.818;8.632;2023-08-06T13:06:31;18.10;94.70
23231;DHT22;11784;49.818;8.632;2023-08-06T13:09:05;18.20;94.90
23231;DHT22;11784;49.818;8.632;2023-08-06T13:11:32;18.20;94.60
23231;DHT22;11784;49.818;8.632;2023-08-06T13:14:07;18.20;94.90
23231;DHT22;11784;49.818;8.632;2023-08-06T13:16:34;18.30;94.90
23231;DHT22;11784;49.818;8.632;2023-08-06T13:19:00;18.30;94.30
23231;DHT22;11784;49.818;8.632;2023-08-06T13:21:58;18.40;93.80
23231;DHT22;11784;49.818;8.632;2023-08-06T13:24:24;18.40;93.90
23231;DHT22;11784;49.818;8.632;2023-08-06T13:26:49;18.40;93.90
23231;DHT22;11784;49.818;8.632;2023-08-06T13:29:15;18.40;93.20
23231;DHT22;11784;49.818;8.632;2023-08-06T13:31:40;18.40;93.20
23231;DHT22;11784;49.818;8.632;2023-08-06T13:34:06;18.40;93.10
23231;DHT22;11784;49.818;8.632;2023-08-06T13:36:32;18.40;93.40
23231;DHT22;11784;49.818;8.632;2023-08-06T13:38:58;18.50;93.70
23231;DHT22;11784;49.818;8.632;2023-08-06T13:41:24;18.50;93.00
23231;DHT22;11784;49.818;8.632;2023-08-06T13:43:49;18.50;93.20
23231;DHT22;11784;49.818;8.632;2023-08-06T13:46:15;18.50;93.40
23231;DHT22;11784;49.818;8.632;2023-08-06T13:48:42;18.50;93.60
23231;DHT22;11784;49.818;8.632;2023-08-06T13:51:08;18.50;92.70
23231;DHT22;11784;49.818;8.632;2023-08-06T13:53:35;18.40;92.70
23231;DHT22;11784;49.818;8.632;2023-08-06T13:56:01;18.30;92.40
23231;DHT22;11784;49.818;8.632;2023-08-06T13:58:29;18.30;93.00
23231;DHT22;11784;49.818;8.632;2023-08-06T14:00:55;18.30;93.40
23231;DHT22;11784;49.818;8.632;2023-08-06T14:03:22;18.30;93.40
23231;DHT22;11784;49.818;8.632;2023-08-06T14:05:47;18.20;93.50
23231;DHT22;11784;49.818;8.632;2023-08-06T14:08:15;18.30;94.30
23231;DHT22;11784;49.818;8.632;2023-08-06T14:10:43;18.30;94.20
23231;DHT22;11784;49.818;8.632;2023-08-06T14:13:09;18.30;93.50
23231;DHT22;11784;49.818;8.632;2023-08-06T14:15:35;18.30;93.30
23231;DHT22;11784;49.818;8.632;2023-08-06T14:18:01;18.30;93.00
23231;DHT22;11784;49.818;8.632;2023-08-06T14:20:27;18.30;93.40
23231;DHT22;11784;49.818;8.632;2023-08-06T14:22:53;18.30;93.60
23231;DHT22;11784;49.818;8.632;2023-08-06T14:25:19;18.30;93.60
23231;DHT22;11784;49.818;8.632;2023-08-06T14:27:44;18.30;93.50
23231;DHT22;11784;49.818;8.632;2023-08-06T14:30:12;18.30;93.40
23231;DHT22;11784;49.818;8.632;2023-08-06T14:32:37;18.30;93.70
23231;DHT22;11784;49.818;8.632;2023-08-06T14:35:03;18.40;93.80
23231;DHT22;11784;49.818;8.632;2023-08-06T14:37:29;18.30;93.70
23231;DHT22;11784;49.818;8.632;2023-08-06T14:39:54;18.40;93.70
23231;DHT22;11784;49.818;8.632;2023-08-06T14:42:20;18.40;93.60
23231;DHT22;11784;49.818;8.632;2023-08-06T14:44:46;18.40;93.50
23231;DHT22;11784;49.818;8.632;2023-08-06T14:47:11;18.40;93.50
23231;DHT22;11784;49.818;8.632;2023-08-06T14:49:38;18.30;93.50
23231;DHT22;11784;49.818;8.632;2023-08-06T14:52:04;18.30;93.70
23231;DHT22;11784;49.818;8.632;2023-08-06T14:54:29;18.30;93.80
23231;DHT22;11784;49.818;8.632;2023-08-06T14:56:55;18.30;94.20
23231;DHT22;11784;49.818;8.632;2023-08-06T14:59:21;18.40;94.50
23231;DHT22;11784;49.818;8.632;2023-08-06T15:01:47;18.30;95.00
23231;DHT22;11784;49.818;8.632;2023-08-06T15:04:12;18.30;94.90
23231;DHT22;11784;49.818;8.632;2023-08-06T15:06:38;18.30;95.30
23231;DHT22;11784;49.818;8.632;2023-08-06T15:09:03;18.30;95.60
23231;DHT22;11784;49.818;8.632;2023-08-06T15:11:29;18.30;95.40
23231;DHT22;11784;49.818;8.632;2023-08-06T15:13:54;18.30;95.40
23231;DHT22;11784;49.818;8.632;2023-08-06T15:16:20;18.30;95.20
23231;DHT22;11784;49.818;8.632;2023-08-06T15:18:48;18.30;95.40
23231;DHT22;11784;49.818;8.632;2023-08-06T15:21:14;18.30;95.70
23231;DHT22;11784;49.818;8.632;2023-08-06T15:23:40;18.30;96.10
23231;DHT22;11784;49.818;8.632;2023-08-06T15:26:05;18.20;95.80